sensor_id;sensor_type;location;lat;lon;timestamp;pressure;altitude;pressure_sealevel;temperature;humidity
63009;BME280;49099;28.428;-16.488;2023-02-15T00:00:04;99195.13;;;17.11;55.03
63009;BME280;49099;28.428;-16.488;2023-02-15T00:02:32;99211.13;;;17.16;55.30
63009;BME280;49099;28.428;-16.488;2023-02-15T00:04:59;99205.78;;;17.16;54.79
63009;BME280;49099;28.428;-16.488;2023-02-15T00:07:26;99198.81;;;17.15;54.37
63009;BME280;49099;28.428;-16.488;2023-02-15T00:09:53;99197.28;;;17.09;53.47
63009;BME280;49099;28.428;-16.488;2023-02-15T00:12:21;99187.66;;;17.08;53.25
63009;BME280;49099;28.428;-16.488;2023-02-15T00:14:48;99190.03;;;17.10;52.60
63009;BME280;49099;28.428;-16.488;2023-02-15T00:17:15;99187.88;;;17.12;52.56
63009;BME280;49099;28.428;-16.488;2023-02-15T00:19:42;99199.69;;;17.11;52.72
63009;BME280;49099;28.428;-16.488;2023-02-15T00:22:09;99202.44;;;17.06;52.22
63009;BME280;49099;28.428;-16.488;2023-02-15T00:24:37;99191.78;;;17.01;51.93
63009;BME280;49099;28.428;-16.488;2023-02-15T00:27:04;99188.81;;;17.02;50.87
63009;BME280;49099;28.428;-16.488;2023-02-15T00:29:31;99188.00;;;17.02;50.30
63009;BME280;49099;28.428;-16.488;2023-02-15T00:31:58;99182.66;;;17.02;49.28
63009;BME280;49099;28.428;-16.488;2023-02-15T00:34:27;99171.38;;;17.05;49.30
63009;BME280;49099;28.428;-16.488;2023-02-15T00:36:54;99177.75;;;17.09;49.21
63009;BME280;49099;28.428;-16.488;2023-02-15T00:39:21;99179.56;;;17.13;50.71
63009;BME280;49099;28.428;-16.488;2023-02-15T00:41:50;99183.91;;;17.28;51.94
63009;BME280;49099;28.428;-16.488;2023-02-15T00:44:17;99176.28;;;17.35;50.03
63009;BME280;49099;28.428;-16.488;2023-02-15T00:46:44;99168.75;;;17.37;49.22
63009;BME280;49099;28.428;-16.488;2023-02-15T00:49:11;99174.31;;;17.41;50.47
63009;BME280;49099;28.428;-16.488;2023-02-15T00:51:39;99173.16;;;17.47;50.66
63009;BME280;49099;28.428;-16.488;2023-02-15T00:54:06;99170.19;;;17.48;50.06
63009;BME280;49099;28.428;-16.488;2023-02-15T00:56:34;99163.81;;;17.44;50.15
63009;BME280;49099;28.428;-16.488;2023-02-15T00:59:01;99148.97;;;17.33;49.56
63009;BME280;49099;28.428;-16.488;2023-02-15T01:01:28;99150.84;;;17.33;50.16
63009;BME280;49099;28.428;-16.488;2023-02-15T01:03:55;99144.91;;;17.36;50.62
63009;BME280;49099;28.428;-16.488;2023-02-15T01:06:23;99140.63;;;17.35;50.08
63009;BME280;49099;28.428;-16.488;2023-02-15T01:08:50;99142.00;;;17.32;49.50
63009;BME280;49099;28.428;-16.488;2023-02-15T01:11:20;99133.97;;;17.32;49.95
63009;BME280;49099;28.428;-16.488;2023-02-15T01:13:56;99132.56;;;17.35;49.97
63009;BME280;49099;28.428;-16.488;2023-02-15T01:16:26;99127.94;;;17.40;50.39
63009;BME280;49099;28.428;-16.488;2023-02-15T01:18:53;99131.03;;;17.47;49.71
63009;BME280;49099;28.428;-16.488;2023-02-15T01:21:25;99129.09;;;17.53;50.50
63009;BME280;49099;28.428;-16.488;2023-02-15T01:23:52;99130.38;;;17.55;49.57
63009;BME280;49099;28.428;-16.488;2023-02-15T01:26:20;99126.28;;;17.58;48.26
63009;BME280;49099;28.428;-16.488;2023-02-15T01:28:48;99129.19;;;17.62;48.32
63009;BME280;49099;28.428;-16.488;2023-02-15T01:31:17;99137.41;;;17.70;49.90
63009;BME280;49099;28.428;-16.488;2023-02-15T01:33:46;99133.84;;;17.75;50.17
63009;BME280;49099;28.428;-16.488;2023-02-15T01:36:13;99131.72;;;17.72;49.34
63009;BME280;49099;28.428;-16.488;2023-02-15T01:38:41;99138.13;;;17.76;49.07
63009;BME280;49099;28.428;-16.488;2023-02-15T01:41:08;99132.16;;;17.79;49.42
63009;BME280;49099;28.428;-16.488;2023-02-15T01:44:01;99139.91;;;17.80;52.37
63009;BME280;49099;28.428;-16.488;2023-02-15T01:46:36;99150.84;;;17.51;66.26
63009;BME280;49099;28.428;-16.488;2023-02-15T01:49:15;99152.97;;;17.36;65.16
63009;BME280;49099;28.428;-16.488;2023-02-15T01:51:45;99152.78;;;17.27;69.62
63009;BME280;49099;28.428;-16.488;2023-02-15T01:54:27;99153.31;;;17.10;72.71
63009;BME280;49099;28.428;-16.488;2023-02-15T01:57:11;99158.69;;;17.10;72.32
63009;BME280;49099;28.428;-16.488;2023-02-15T01:59:40;99155.69;;;17.12;72.66
63009;BME280;49099;28.428;-16.488;2023-02-15T02:02:12;99152.31;;;17.06;73.82
63009;BME280;49099;28.428;-16.488;2023-02-15T02:04:45;99157.88;;;17.10;72.37
63009;BME280;49099;28.428;-16.488;2023-02-15T02:07:15;99157.88;;;17.10;73.17
63009;BME280;49099;28.428;-16.488;2023-02-15T02:09:44;99154.84;;;16.97;73.93
63009;BME280;49099;28.428;-16.488;2023-02-15T02:12:12;99158.84;;;17.00;72.88
63009;BME280;49099;28.428;-16.488;2023-02-15T02:14:40;99158.84;;;17.00;72.81
63009;BME280;49099;28.428;-16.488;2023-02-15T02:20:30;99157.16;;;16.85;70.98
63009;BME280;49099;28.428;-16.488;2023-02-15T02:23:12;99150.25;;;16.79;71.88
63009;BME280;49099;28.428;-16.488;2023-02-15T02:26:42;99148.13;;;16.81;72.97
63009;BME280;49099;28.428;-16.488;2023-02-15T02:34:33;99123.63;;;16.64;69.82
63009;BME280;49099;28.428;-16.488;2023-02-15T02:40:07;99108.84;;;16.48;67.53
63009;BME280;49099;28.428;-16.488;2023-02-15T02:42:43;99106.81;;;16.39;66.77
63009;BME280;49099;28.428;-16.488;2023-02-15T02:45:20;99114.28;;;16.42;67.01
63009;BME280;49099;28.428;-16.488;2023-02-15T02:47:57;99107.25;;;16.47;67.37
63009;BME280;49099;28.428;-16.488;2023-02-15T02:50:29;99107.84;;;16.43;67.96
63009;BME280;49099;28.428;-16.488;2023-02-15T02:52:57;99102.50;;;16.43;68.43
63009;BME280;49099;28.428;-16.488;2023-02-15T02:55:41;99104.88;;;16.45;68.91
63009;BME280;49099;28.428;-16.488;2023-02-15T02:58:23;99117.41;;;16.50;68.31
63009;BME280;49099;28.428;-16.488;2023-02-15T03:00:59;99118.44;;;16.54;68.52
63009;BME280;49099;28.428;-16.488;2023-02-15T03:03:49;99117.84;;;16.57;68.94
63009;BME280;49099;28.428;-16.488;2023-02-15T03:06:27;99115.75;;;16.54;67.44
63009;BME280;49099;28.428;-16.488;2023-02-15T03:09:08;99112.03;;;16.50;66.09
63009;BME280;49099;28.428;-16.488;2023-02-15T03:11:43;99120.16;;;16.44;64.09
63009;BME280;49099;28.428;-16.488;2023-02-15T03:14:13;99109.56;;;16.34;63.29
63009;BME280;49099;28.428;-16.488;2023-02-15T03:16:42;99100.56;;;16.25;63.01
63009;BME280;49099;28.428;-16.488;2023-02-15T03:19:17;99105.69;;;16.22;62.32
63009;BME280;49099;28.428;-16.488;2023-02-15T03:21:50;99105.47;;;16.18;62.60
63009;BME280;49099;28.428;-16.488;2023-02-15T03:24:28;99111.91;;;16.17;62.45
63009;BME280;49099;28.428;-16.488;2023-02-15T03:26:57;99104.44;;;16.14;63.18
63009;BME280;49099;28.428;-16.488;2023-02-15T03:29:27;99098.59;;;16.12;62.53
63009;BME280;49099;28.428;-16.488;2023-02-15T03:31:59;99095.91;;;16.12;63.86
63009;BME280;49099;28.428;-16.488;2023-02-15T03:34:28;99105.53;;;16.13;64.09
63009;BME280;49099;28.428;-16.488;2023-02-15T03:42:26;99099.41;;;16.31;63.76
63009;BME280;49099;28.428;-16.488;2023-02-15T03:45:09;99098.63;;;16.31;64.33
63009;BME280;49099;28.428;-16.488;2023-02-15T03:47:41;99088.84;;;16.21;64.33
63009;BME280;49099;28.428;-16.488;2023-02-15T03:50:39;99093.06;;;16.27;63.88
63009;BME280;49099;28.428;-16.488;2023-02-15T03:53:26;99081.19;;;16.33;64.21
63009;BME280;49099;28.428;-16.488;2023-02-15T03:55:54;99064.41;;;16.28;64.20
63009;BME280;49099;28.428;-16.488;2023-02-15T03:58:22;99062.53;;;16.28;63.73
63009;BME280;49099;28.428;-16.488;2023-02-15T04:07:01;99073.59;;;16.40;63.95
63009;BME280;49099;28.428;-16.488;2023-02-15T04:09:29;99071.22;;;16.39;63.89
63009;BME280;49099;28.428;-16.488;2023-02-15T04:12:14;99069.28;;;16.44;64.23
63009;BME280;49099;28.428;-16.488;2023-02-15T04:14:41;99065.00;;;16.43;64.21
63009;BME280;49099;28.428;-16.488;2023-02-15T04:17:27;99059.88;;;16.47;64.38
63009;BME280;49099;28.428;-16.488;2023-02-15T04:19:55;99055.25;;;16.53;64.28
63009;BME280;49099;28.428;-16.488;2023-02-15T04:22:40;99058.91;;;16.57;64.47
63009;BME280;49099;28.428;-16.488;2023-02-15T04:25:26;99066.09;;;16.61;64.38
63009;BME280;49099;28.428;-16.488;2023-02-15T04:27:54;99063.06;;;16.68;64.55
63009;BME280;49099;28.428;-16.488;2023-02-15T04:30:24;99070.84;;;16.69;64.64
63009;BME280;49099;28.428;-16.488;2023-02-15T04:32:53;99073.53;;;16.69;64.84
63009;BME280;49099;28.428;-16.488;2023-02-15T04:35:21;99063.03;;;16.73;65.07
63009;BME280;49099;28.428;-16.488;2023-02-15T04:37:49;99064.03;;;16.77;66.51
63009;BME280;49099;28.428;-16.488;2023-02-15T04:40:16;99055.03;;;16.68;68.96
63009;BME280;49099;28.428;-16.488;2023-02-15T04:42:47;99044.31;;;16.68;68.85
63009;BME280;49099;28.428;-16.488;2023-02-15T04:45:16;99055.03;;;16.68;69.46
63009;BME280;49099;28.428;-16.488;2023-02-15T04:47:44;99055.03;;;16.68;69.92
63009;BME280;49099;28.428;-16.488;2023-02-15T04:50:11;99050.47;;;16.68;70.32
63009;BME280;49099;28.428;-16.488;2023-02-15T04:52:38;99055.09;;;16.63;70.46
63009;BME280;49099;28.428;-16.488;2023-02-15T04:55:06;99053.88;;;16.55;70.80
63009;BME280;49099;28.428;-16.488;2023-02-15T04:57:33;99059.94;;;16.61;71.07
63009;BME280;49099;28.428;-16.488;2023-02-15T05:00:00;99054.38;;;16.57;71.00
63009;BME280;49099;28.428;-16.488;2023-02-15T05:02:28;99045.19;;;16.44;71.36
63009;BME280;49099;28.428;-16.488;2023-02-15T05:04:55;99045.25;;;16.39;71.57
63009;BME280;49099;28.428;-16.488;2023-02-15T05:07:22;99042.13;;;16.32;71.50
63009;BME280;49099;28.428;-16.488;2023-02-15T05:09:49;99049.50;;;16.40;71.45
63009;BME280;49099;28.428;-16.488;2023-02-15T05:12:16;99050.03;;;16.42;71.10
63009;BME280;49099;28.428;-16.488;2023-02-15T05:14:43;99057.28;;;16.42;70.72
63009;BME280;49099;28.428;-16.488;2023-02-15T05:17:10;99056.44;;;16.41;70.55
63009;BME280;49099;28.428;-16.488;2023-02-15T05:19:37;99062.09;;;16.40;70.51
63009;BME280;49099;28.428;-16.488;2023-02-15T05:22:05;99061.81;;;16.41;70.88
63009;BME280;49099;28.428;-16.488;2023-02-15T05:24:32;99069.03;;;16.41;71.37
63009;BME280;49099;28.428;-16.488;2023-02-15T05:27:17;99069.19;;;16.50;72.23
63009;BME280;49099;28.428;-16.488;2023-02-15T05:30:03;99069.78;;;16.47;72.61
63009;BME280;49099;28.428;-16.488;2023-02-15T05:32:31;99065.31;;;16.42;72.55
63009;BME280;49099;28.428;-16.488;2023-02-15T05:34:58;99054.06;;;16.40;71.06
63009;BME280;49099;28.428;-16.488;2023-02-15T05:37:25;99058.47;;;16.31;72.11
63009;BME280;49099;28.428;-16.488;2023-02-15T05:39:52;99062.22;;;16.11;71.75
63009;BME280;49099;28.428;-16.488;2023-02-15T05:42:19;99066.31;;;16.03;71.60
63009;BME280;49099;28.428;-16.488;2023-02-15T05:44:46;99059.88;;;16.04;71.87
63009;BME280;49099;28.428;-16.488;2023-02-15T05:47:13;99069.59;;;16.19;70.17
63009;BME280;49099;28.428;-16.488;2023-02-15T05:49:40;99074.25;;;16.32;68.85
63009;BME280;49099;28.428;-16.488;2023-02-15T05:52:07;99065.72;;;16.30;69.72
63009;BME280;49099;28.428;-16.488;2023-02-15T05:54:34;99060.94;;;16.27;69.92
63009;BME280;49099;28.428;-16.488;2023-02-15T05:57:02;99054.50;;;16.28;70.09
63009;BME280;49099;28.428;-16.488;2023-02-15T05:59:29;99049.50;;;16.40;69.78
63009;BME280;49099;28.428;-16.488;2023-02-15T06:01:56;99053.78;;;16.41;69.91
63009;BME280;49099;28.428;-16.488;2023-02-15T06:04:23;99050.53;;;16.44;68.97
63009;BME280;49099;28.428;-16.488;2023-02-15T06:06:50;99049.94;;;16.48;68.79
63009;BME280;49099;28.428;-16.488;2023-02-15T06:09:17;99042.56;;;16.39;69.14
63009;BME280;49099;28.428;-16.488;2023-02-15T06:11:46;99045.81;;;16.36;69.58
63009;BME280;49099;28.428;-16.488;2023-02-15T06:14:13;99043.72;;;16.33;69.84
63009;BME280;49099;28.428;-16.488;2023-02-15T06:16:41;99045.88;;;16.31;69.88
63009;BME280;49099;28.428;-16.488;2023-02-15T06:19:08;99049.84;;;16.34;70.27
63009;BME280;49099;28.428;-16.488;2023-02-15T06:21:35;99049.00;;;16.38;70.55
63009;BME280;49099;28.428;-16.488;2023-02-15T06:24:02;99059.13;;;16.41;70.87
63009;BME280;49099;28.428;-16.488;2023-02-15T06:26:29;99055.31;;;16.48;71.46
63009;BME280;49099;28.428;-16.488;2023-02-15T06:28:56;99048.59;;;16.50;71.48
63009;BME280;49099;28.428;-16.488;2023-02-15T06:31:23;99062.69;;;16.56;72.03
63009;BME280;49099;28.428;-16.488;2023-02-15T06:33:51;99057.94;;;16.53;72.48
63009;BME280;49099;28.428;-16.488;2023-02-15T06:36:18;99054.50;;;16.47;72.38
63009;BME280;49099;28.428;-16.488;2023-02-15T06:38:45;99063.84;;;16.50;72.68
63009;BME280;49099;28.428;-16.488;2023-02-15T06:41:12;99065.56;;;16.40;73.09
63009;BME280;49099;28.428;-16.488;2023-02-15T06:43:39;99067.28;;;16.31;73.30
63009;BME280;49099;28.428;-16.488;2023-02-15T06:46:07;99062.00;;;16.26;72.61
63009;BME280;49099;28.428;-16.488;2023-02-15T06:48:34;99068.44;;;16.25;72.68
63009;BME280;49099;28.428;-16.488;2023-02-15T06:51:01;99061.19;;;16.26;72.42
63009;BME280;49099;28.428;-16.488;2023-02-15T06:53:28;99073.00;;;16.25;72.59
63009;BME280;49099;28.428;-16.488;2023-02-15T06:56:03;99086.66;;;16.23;72.17
63009;BME280;49099;28.428;-16.488;2023-02-15T06:58:33;99088.75;;;16.26;72.72
63009;BME280;49099;28.428;-16.488;2023-02-15T07:01:00;99089.41;;;16.42;71.51
63009;BME280;49099;28.428;-16.488;2023-02-15T07:03:27;99094.97;;;16.46;71.23
63009;BME280;49099;28.428;-16.488;2023-02-15T07:05:59;99093.81;;;16.52;71.40
63009;BME280;49099;28.428;-16.488;2023-02-15T07:08:27;99100.63;;;16.44;71.54
63009;BME280;49099;28.428;-16.488;2023-02-15T07:10:55;99092.34;;;16.40;71.67
63009;BME280;49099;28.428;-16.488;2023-02-15T07:13:46;99081.19;;;16.33;71.86
63009;BME280;49099;28.428;-16.488;2023-02-15T07:16:14;99081.25;;;16.28;71.83
63009;BME280;49099;28.428;-16.488;2023-02-15T07:18:41;99079.16;;;16.25;71.40
63009;BME280;49099;28.428;-16.488;2023-02-15T07:21:08;99081.31;;;16.23;70.87
63009;BME280;49099;28.428;-16.488;2023-02-15T07:23:37;99085.59;;;16.24;70.50
63009;BME280;49099;28.428;-16.488;2023-02-15T07:26:05;99079.94;;;16.26;70.33
63009;BME280;49099;28.428;-16.488;2023-02-15T07:28:35;99091.97;;;16.28;69.49
63009;BME280;49099;28.428;-16.488;2023-02-15T07:31:04;99092.69;;;16.34;68.90
63009;BME280;49099;28.428;-16.488;2023-02-15T07:33:32;99085.97;;;16.36;68.76
63009;BME280;49099;28.428;-16.488;2023-02-15T07:36:01;99092.22;;;16.51;69.09
63009;BME280;49099;28.428;-16.488;2023-02-15T07:38:34;99096.06;;;16.44;68.29
63009;BME280;49099;28.428;-16.488;2023-02-15T07:41:03;99107.84;;;16.43;68.52
63009;BME280;49099;28.428;-16.488;2023-02-15T07:43:34;99110.44;;;16.49;69.29
63009;BME280;49099;28.428;-16.488;2023-02-15T07:46:03;99097.00;;;16.54;68.77
63009;BME280;49099;28.428;-16.488;2023-02-15T07:48:32;99101.50;;;16.58;68.66
63009;BME280;49099;28.428;-16.488;2023-02-15T07:51:01;99103.16;;;16.54;69.23
63009;BME280;49099;28.428;-16.488;2023-02-15T07:53:29;99104.44;;;16.57;69.10
63009;BME280;49099;28.428;-16.488;2023-02-15T07:56:03;99109.25;;;16.60;69.28
63009;BME280;49099;28.428;-16.488;2023-02-15T07:58:31;99121.84;;;16.59;68.77
63009;BME280;49099;28.428;-16.488;2023-02-15T08:03:45;99118.72;;;16.52;69.46
63009;BME280;49099;28.428;-16.488;2023-02-15T08:06:12;99119.81;;;16.51;69.31
63009;BME280;49099;28.428;-16.488;2023-02-15T08:08:41;99119.72;;;16.56;69.23
63009;BME280;49099;28.428;-16.488;2023-02-15T08:19:20;99131.19;;;16.62;68.68
63009;BME280;49099;28.428;-16.488;2023-02-15T08:21:50;99142.97;;;16.61;68.70
63009;BME280;49099;28.428;-16.488;2023-02-15T08:24:20;99139.78;;;16.59;69.27
63009;BME280;49099;28.428;-16.488;2023-02-15T08:26:48;99145.00;;;16.50;69.58
63009;BME280;49099;28.428;-16.488;2023-02-15T08:29:18;99152.84;;;16.41;70.02
63009;BME280;49099;28.428;-16.488;2023-02-15T08:31:45;99157.63;;;16.44;69.46
63009;BME280;49099;28.428;-16.488;2023-02-15T08:34:16;99169.31;;;16.54;69.11
63009;BME280;49099;28.428;-16.488;2023-02-15T08:36:44;99166.03;;;16.57;68.04
63009;BME280;49099;28.428;-16.488;2023-02-15T08:39:15;99176.31;;;16.50;67.82
63009;BME280;49099;28.428;-16.488;2023-02-15T08:41:44;99184.88;;;16.52;68.01
63009;BME280;49099;28.428;-16.488;2023-02-15T08:44:14;99178.72;;;16.51;67.89
63009;BME280;49099;28.428;-16.488;2023-02-15T08:46:43;99188.06;;;16.54;67.44
63009;BME280;49099;28.428;-16.488;2023-02-15T08:49:21;99191.81;;;16.53;67.74
63009;BME280;49099;28.428;-16.488;2023-02-15T08:51:49;99191.75;;;16.58;68.34
63009;BME280;49099;28.428;-16.488;2023-02-15T08:54:19;99194.78;;;16.51;67.92
63009;BME280;49099;28.428;-16.488;2023-02-15T08:56:46;99203.66;;;16.47;68.55
63009;BME280;49099;28.428;-16.488;2023-02-15T08:59:20;99210.09;;;16.46;68.62
63009;BME280;49099;28.428;-16.488;2023-02-15T09:01:49;99206.28;;;16.52;66.48
63009;BME280;49099;28.428;-16.488;2023-02-15T09:04:17;99217.00;;;16.52;66.38
63009;BME280;49099;28.428;-16.488;2023-02-15T09:06:45;99219.91;;;16.55;65.58
63009;BME280;49099;28.428;-16.488;2023-02-15T09:09:15;99219.16;;;16.50;66.24
63009;BME280;49099;28.428;-16.488;2023-02-15T09:11:44;99220.19;;;16.54;66.54
63009;BME280;49099;28.428;-16.488;2023-02-15T09:14:14;99207.25;;;16.61;64.19
63009;BME280;49099;28.428;-16.488;2023-02-15T09:16:44;99221.16;;;16.63;63.79
63009;BME280;49099;28.428;-16.488;2023-02-15T09:19:13;99224.50;;;16.50;64.91
63009;BME280;49099;28.428;-16.488;2023-02-15T09:21:40;99232.59;;;16.44;65.89
63009;BME280;49099;28.428;-16.488;2023-02-15T09:24:09;99237.16;;;16.44;65.88
63009;BME280;49099;28.428;-16.488;2023-02-15T09:26:43;99239.56;;;16.46;65.25
63009;BME280;49099;28.428;-16.488;2023-02-15T09:29:11;99235.63;;;16.62;64.18
63009;BME280;49099;28.428;-16.488;2023-02-15T09:31:43;99231.81;;;16.68;63.47
63009;BME280;49099;28.428;-16.488;2023-02-15T09:34:13;99226.47;;;16.68;64.80
63009;BME280;49099;28.428;-16.488;2023-02-15T09:36:41;99236.13;;;16.64;64.41
63009;BME280;49099;28.428;-16.488;2023-02-15T09:44:54;99232.84;;;16.72;61.96
63009;BME280;49099;28.428;-16.488;2023-02-15T09:55:45;99238.91;;;16.83;62.56
63009;BME280;49099;28.428;-16.488;2023-02-15T09:58:38;99236.34;;;16.96;63.51
63009;BME280;49099;28.428;-16.488;2023-02-15T10:04:16;99243.69;;;16.86;64.19
63009;BME280;49099;28.428;-16.488;2023-02-15T10:09:45;99247.09;;;16.91;63.34
63009;BME280;49099;28.428;-16.488;2023-02-15T10:20:36;99237.00;;;17.26;63.78
63009;BME280;49099;28.428;-16.488;2023-02-15T10:28:48;99253.28;;;17.11;62.68
63009;BME280;49099;28.428;-16.488;2023-02-15T10:31:28;99245.38;;;17.01;62.88
63009;BME280;49099;28.428;-16.488;2023-02-15T10:50:50;99246.72;;;17.22;61.53
63009;BME280;49099;28.428;-16.488;2023-02-15T10:59:10;99248.47;;;17.13;60.01
63009;BME280;49099;28.428;-16.488;2023-02-15T11:05:14;99262.16;;;16.87;60.85
63009;BME280;49099;28.428;-16.488;2023-02-15T11:07:25;99264.94;;;16.77;61.64
63009;BME280;49099;28.428;-16.488;2023-02-15T11:10:29;99254.69;;;16.84;62.97
63009;BME280;49099;28.428;-16.488;2023-02-15T11:12:58;99255.31;;;16.76;63.00
63009;BME280;49099;28.428;-16.488;2023-02-15T11:16:32;99251.56;;;16.77;65.26
63009;BME280;49099;28.428;-16.488;2023-02-15T11:18:46;99248.38;;;16.75;64.07
63009;BME280;49099;28.428;-16.488;2023-02-15T11:21:34;99247.06;;;16.96;62.28
63009;BME280;49099;28.428;-16.488;2023-02-15T11:24:13;99242.13;;;17.04;60.72
63009;BME280;49099;28.428;-16.488;2023-02-15T11:27:03;99254.97;;;17.07;60.71
63009;BME280;49099;28.428;-16.488;2023-02-15T11:32:19;99249.47;;;17.17;61.22
63009;BME280;49099;28.428;-16.488;2023-02-15T11:35:04;99246.78;;;17.17;61.99
63009;BME280;49099;28.428;-16.488;2023-02-15T11:37:59;99241.91;;;17.19;61.38
63009;BME280;49099;28.428;-16.488;2023-02-15T11:40:31;99229.69;;;17.13;61.44
63009;BME280;49099;28.428;-16.488;2023-02-15T11:43:06;99243.81;;;17.18;62.20
63009;BME280;49099;28.428;-16.488;2023-02-15T11:45:39;99250.25;;;17.17;56.92
63009;BME280;49099;28.428;-16.488;2023-02-15T11:48:10;99239.38;;;17.09;57.82
63009;BME280;49099;28.428;-16.488;2023-02-15T11:50:39;99240.78;;;17.25;58.74
63009;BME280;49099;28.428;-16.488;2023-02-15T11:53:12;99232.50;;;17.40;55.47
63009;BME280;49099;28.428;-16.488;2023-02-15T11:55:43;99232.28;;;17.55;56.38
63009;BME280;49099;28.428;-16.488;2023-02-15T12:00:56;99231.06;;;17.67;55.12
63009;BME280;49099;28.428;-16.488;2023-02-15T12:07:11;99223.59;;;17.64;55.20
63009;BME280;49099;28.428;-16.488;2023-02-15T12:14:56;99208.75;;;17.52;54.62
63009;BME280;49099;28.428;-16.488;2023-02-15T12:17:27;99193.97;;;17.36;56.99
63009;BME280;49099;28.428;-16.488;2023-02-15T12:19:57;99197.88;;;17.25;57.78
63009;BME280;49099;28.428;-16.488;2023-02-15T12:22:36;99199.75;;;17.06;59.62
63009;BME280;49099;28.428;-16.488;2023-02-15T12:27:47;99201.72;;;17.00;59.15
63009;BME280;49099;28.428;-16.488;2023-02-15T12:30:36;99195.19;;;17.06;59.19
63009;BME280;49099;28.428;-16.488;2023-02-15T12:33:15;99187.88;;;17.12;59.70
63009;BME280;49099;28.428;-16.488;2023-02-15T12:35:44;99194.06;;;17.12;58.97
63009;BME280;49099;28.428;-16.488;2023-02-15T12:40:38;99193.47;;;17.15;53.34
63009;BME280;49099;28.428;-16.488;2023-02-15T12:43:29;99188.75;;;17.26;53.47
63009;BME280;49099;28.428;-16.488;2023-02-15T12:46:23;99186.44;;;17.38;53.25
63009;BME280;49099;28.428;-16.488;2023-02-15T12:49:11;99183.50;;;17.53;52.46
63009;BME280;49099;28.428;-16.488;2023-02-15T12:51:49;99174.00;;;17.61;52.17
63009;BME280;49099;28.428;-16.488;2023-02-15T12:54:39;99166.59;;;17.72;51.28
63009;BME280;49099;28.428;-16.488;2023-02-15T13:00:00;99164.50;;;17.69;50.31
63009;BME280;49099;28.428;-16.488;2023-02-15T13:02:49;99159.06;;;17.74;51.85
63009;BME280;49099;28.428;-16.488;2023-02-15T13:05:22;99152.31;;;17.76;51.00
63009;BME280;49099;28.428;-16.488;2023-02-15T13:08:19;99141.28;;;17.78;50.06
63009;BME280;49099;28.428;-16.488;2023-02-15T13:13:23;99136.22;;;17.58;49.32
63009;BME280;49099;28.428;-16.488;2023-02-15T13:15:54;99139.94;;;17.62;48.94
63009;BME280;49099;28.428;-16.488;2023-02-15T13:18:35;99125.13;;;17.64;48.26
63009;BME280;49099;28.428;-16.488;2023-02-15T13:21:15;99137.66;;;17.69;48.53
63009;BME280;49099;28.428;-16.488;2023-02-15T13:24:22;99129.91;;;17.67;48.24
63009;BME280;49099;28.428;-16.488;2023-02-15T13:26:52;99118.44;;;17.80;49.78
63009;BME280;49099;28.428;-16.488;2023-02-15T13:29:38;99108.50;;;17.81;48.97
63009;BME280;49099;28.428;-16.488;2023-02-15T13:32:15;99105.22;;;17.84;49.48
63009;BME280;49099;28.428;-16.488;2023-02-15T13:34:48;99103.91;;;17.81;48.44
63009;BME280;49099;28.428;-16.488;2023-02-15T13:39:51;99104.72;;;17.96;47.82
63009;BME280;49099;28.428;-16.488;2023-02-15T13:42:27;99088.44;;;17.92;47.07
63009;BME280;49099;28.428;-16.488;2023-02-15T13:53:36;99072.84;;;17.94;45.76
63009;BME280;49099;28.428;-16.488;2023-02-15T14:01:56;99061.09;;;18.04;46.63
63009;BME280;49099;28.428;-16.488;2023-02-15T14:07:49;99042.91;;;18.15;46.20
63009;BME280;49099;28.428;-16.488;2023-02-15T14:10:47;99038.03;;;18.17;45.11
63009;BME280;49099;28.428;-16.488;2023-02-15T14:13:32;99029.50;;;18.15;45.53
63009;BME280;49099;28.428;-16.488;2023-02-15T14:18:53;99032.97;;;18.01;46.35
63009;BME280;49099;28.428;-16.488;2023-02-15T14:21:31;99026.00;;;18.00;47.48
63009;BME280;49099;28.428;-16.488;2023-02-15T14:26:59;99024.03;;;17.92;49.01
63009;BME280;49099;28.428;-16.488;2023-02-15T14:32:24;99012.59;;;17.87;49.17
63009;BME280;49099;28.428;-16.488;2023-02-15T14:34:58;99010.31;;;17.94;48.75
63009;BME280;49099;28.428;-16.488;2023-02-15T14:43:47;99010.13;;;17.76;47.44
63009;BME280;49099;28.428;-16.488;2023-02-15T14:48:54;99008.31;;;17.72;48.69
63009;BME280;49099;28.428;-16.488;2023-02-15T14:56:47;98991.44;;;17.99;46.75
63009;BME280;49099;28.428;-16.488;2023-02-15T14:59:41;98993.19;;;18.03;46.19
63009;BME280;49099;28.428;-16.488;2023-02-15T15:07:22;98993.81;;;18.00;44.78
63009;BME280;49099;28.428;-16.488;2023-02-15T15:12:56;98981.44;;;18.13;43.30
63009;BME280;49099;28.428;-16.488;2023-02-15T15:17:58;98974.72;;;18.02;42.65
63009;BME280;49099;28.428;-16.488;2023-02-15T15:25:56;98969.09;;;18.26;44.17
63009;BME280;49099;28.428;-16.488;2023-02-15T15:31:17;98964.59;;;18.35;44.10
63009;BME280;49099;28.428;-16.488;2023-02-15T15:48:33;98956.59;;;18.21;45.28
63009;BME280;49099;28.428;-16.488;2023-02-15T15:51:29;98958.66;;;18.24;45.44
63009;BME280;49099;28.428;-16.488;2023-02-15T15:53:57;98954.91;;;18.12;46.76
63009;BME280;49099;28.428;-16.488;2023-02-15T15:56:27;98954.75;;;17.94;47.60
63009;BME280;49099;28.428;-16.488;2023-02-15T15:59:00;98954.66;;;17.86;52.18
63009;BME280;49099;28.428;-16.488;2023-02-15T16:01:35;98954.16;;;17.70;53.09
63009;BME280;49099;28.428;-16.488;2023-02-15T16:04:05;98948.78;;;17.70;53.35
63009;BME280;49099;28.428;-16.488;2023-02-15T16:06:36;98951.75;;;17.68;54.33
63009;BME280;49099;28.428;-16.488;2023-02-15T16:11:47;98942.50;;;17.33;53.01
63009;BME280;49099;28.428;-16.488;2023-02-15T16:14:36;98938.84;;;17.29;52.63
63009;BME280;49099;28.428;-16.488;2023-02-15T16:17:15;98946.66;;;17.25;52.32
63009;BME280;49099;28.428;-16.488;2023-02-15T16:19:44;98951.25;;;17.25;52.41
63009;BME280;49099;28.428;-16.488;2023-02-15T16:22:24;98947.06;;;17.19;51.71
63009;BME280;49099;28.428;-16.488;2023-02-15T16:28:08;98947.72;;;17.85;50.14